EW7595 Weather Reports


Display with metric or nautical units.
time (UTC)temp
F
wind
direction
speed
MPH
gust
MPH
rain 1hr
in
rain 24hr
in
rain mn
in
humidity
%
barometer
mb
20180716004741 83 89 4.0 9.0 0.00 0.00 0.00 29 1014.8
20180716003102 83 77 3.0 9.0 0.00 0.00 0.00 29 1014.8
20180716001308 83 91 4.0 11.0 0.00 0.00 0.00 29 1014.9
20180715235630 84 69 2.0 7.0 0.00 0.00 0.00 28 1015.0
20180715233842 84 131 1.0 6.0 0.00 0.00 0.00 29 1015.1
20180715232200 83 86 3.0 8.0 0.00 0.00 0.00 30 1015.4
20180715230413 83 69 6.0 10.0 0.00 0.00 0.00 30 1015.6
20180715224734 83 165 4.0 9.0 0.00 0.00 0.00 30 1015.8
20180715222939 84 140 2.0 10.0 0.00 0.00 0.00 29 1016.1
20180715221258 83 172 0.0 6.0 0.00 0.00 0.00 31 1016.2
20180715215509 83 91 7.0 11.0 0.00 0.00 0.00 31 1016.4
20180715213723 82 51 3.0 7.0 0.00 0.00 0.00 33 1016.7
20180715212039 82 77 1.0 9.0 0.00 0.00 0.00 33 1016.9
20180715210242 83 71 1.0 7.0 0.00 0.00 0.00 34 1017.2
20180715204609 82 248 3.0 8.0 0.00 0.00 0.00 34 1017.3
20180715202815 80 107 1.0 7.0 0.00 0.00 0.00 38 1017.6
20180715201132 80 103 1.0 7.0 0.00 0.00 0.00 38 1017.8
20180715195343 79 188 3.0 7.0 0.00 0.00 0.00 40 1018.0
20180715193659 80 160 1.0 7.0 0.00 0.00 0.00 39 1018.2
20180715191904 79 172 1.0 3.0 0.00 0.00 0.00 42 1018.4
20180715190222 77 349 0.0 5.0 0.00 0.00 0.00 43 1018.6
20180715184435 74 134 1.0 7.0 0.00 0.00 0.00 47 1018.7
20180715182747 73 300 0.0 10.0 0.00 0.00 0.00 49 1019.0
20180715180950 72 39 1.0 6.0 0.00 0.00 0.00 50 1019.2
20180715175307 72 30 3.0 10.0 0.00 0.00 0.00 51 1019.3
20180715173512 71 109 3.0 7.0 0.00 0.00 0.00 51 1019.6
20180715171838 70 60 2.0 7.0 0.00 0.00 0.00 52 1019.8
20180715170044 69 262 3.0 7.0 0.00 0.00 0.00 55 1019.9
20180715164407 68 141 3.0 6.0 0.00 0.00 0.00 56 1020.1
20180715162616 67 119 3.0 9.0 0.00 0.00 0.00 57 1020.4
20180715160935 66 121 2.0 7.0 0.00 0.00 0.00 59 1020.5
20180715155145 66 149 1.0 4.0 0.00 0.00 0.00 60 1020.8
20180715153401 64 172 0.0 5.0 0.00 0.00 0.00 65 1020.9
20180715151718 63 243 1.0 4.0 0.00 0.00 0.00 65 1021.0
20180715145926 60 191 0.0 1.0 0.00 0.00 0.00 72 1021.1
20180715144240 59 262 0.0 3.0 0.00 0.00 0.00 74 1021.1
20180715142448 57 257 0.0 2.0 0.00 0.00 0.00 78 1021.3
20180715140802 56 292 0.0 2.0 0.00 0.00 0.00 79 1021.4
20180715135013 54 304 1.0 3.0 0.00 0.00 0.00 84 1021.5
20180715133336 53 281 0.0 3.0 0.00 0.00 0.00 85 1021.5
20180715131545 52 299 2.0 3.0 0.00 0.00 0.00 86 1021.4
20180715125907 51 316 1.0 3.0 0.00 0.00 0.00 87 1021.5
20180715124125 50 318 1.0 4.0 0.00 0.00 0.00 88 1021.6
20180715122442 51 310 0.0 3.0 0.00 0.00 0.00 87 1021.5
20180715120655 50 238 1.0 3.0 0.00 0.00 0.00 88 1021.6
20180715115010 50 244 2.0 4.0 0.00 0.00 0.00 89 1021.8
20180715113215 50 245 0.0 2.0 0.00 0.00 0.00 88 1021.7
20180715111427 51 290 1.0 6.0 0.00 0.00 0.00 87 1021.7
20180715105745 51 313 3.0 6.0 0.00 0.00 0.00 87 1021.7
20180715104000 51 328 1.0 4.0 0.00 0.00 0.00 87 1021.8
20180715102323 51 315 2.0 4.0 0.00 0.00 0.00 87 1021.8
20180715100539 52 323 1.0 4.0 0.00 0.00 0.00 85 1021.8
20180715094901 52 291 2.0 4.0 0.00 0.00 0.00 84 1022.0
20180715093110 53 277 1.0 2.0 0.00 0.00 0.00 83 1022.1
20180715091434 54 288 1.0 2.0 0.00 0.00 0.00 82 1022.2
20180715085632 53 292 0.0 1.0 0.00 0.00 0.00 84 1022.1
20180715083951 54 243 0.0 2.0 0.00 0.00 0.00 84 1022.2
20180715082156 54 248 0.0 1.0 0.00 0.00 0.00 82 1022.3
20180715080519 54 44 0.0 1.0 0.00 0.00 0.00 82 1022.4
20180715074722 55 61 0.0 0.0 0.00 0.00 0.00 78 1022.4
20180715073055 56 61 0.0 1.0 0.00 0.00 0.00 75 1022.4
20180715071256 55 79 0.0 1.0 0.00 0.00 0.00 78 1022.6
20180715065507 57 90 1.0 4.0 0.00 0.00 0.00 76 1022.6
20180715063823 58 160 0.0 2.0 0.00 0.00 0.00 75 1022.5
20180715062038 59 356 0.0 1.0 0.00 0.00 0.00 69 1022.3
20180715060356 59 345 1.0 2.0 0.00 0.00 0.00 69 1022.2
20180715054609 59 251 0.0 0.0 0.00 0.00 0.00 69 1022.3
20180715052927 60 251 0.0 0.0 0.00 0.00 0.00 69 1022.2
20180715051142 61 251 0.0 1.0 0.00 0.00 0.00 66 1022.2
20180715045458 61 252 0.0 1.0 0.00 0.00 0.00 66 1022.0
20180715043702 62 249 0.0 1.0 0.00 0.00 0.00 64 1022.0
20180715042019 62 213 1.0 3.0 0.00 0.00 0.00 64 1022.1
20180715040229 63 272 0.0 3.0 0.00 0.00 0.00 62 1021.9
20180715034546 63 172 1.0 2.0 0.00 0.00 0.00 61 1021.7
20180715032750 64 137 1.0 2.0 0.00 0.00 0.00 59 1021.5
20180715031107 64 132 1.0 2.0 0.00 0.00 0.00 58 1021.3
20180715025317 65 141 1.0 4.0 0.00 0.00 0.00 56 1021.1
20180715023637 66 131 1.0 5.0 0.00 0.00 0.00 55 1021.0
20180715021849 67 162 2.0 5.0 0.00 0.00 0.00 50 1020.9
20180715020207 67 136 0.0 3.0 0.00 0.00 0.00 47 1020.6
20180715014424 68 13 1.0 3.0 0.00 0.00 0.00 46 1020.4
20180715012632 67 56 3.0 6.0 0.00 0.00 0.00 48 1020.4
20180715011002 66 54 2.0 5.0 0.00 0.00 0.00 50 1020.3
20180715005214 65 63 3.0 10.0 0.00 0.00 0.00 54 1020.4